createdAt,value
2018-01-30T00:00:30.360Z,69.59
2018-01-30T00:01:30.318Z,62.56
2018-01-30T00:02:30.277Z,69.49
2018-01-30T00:03:30.237Z,66.64
2018-01-30T00:04:30.190Z,66.74
2018-01-30T00:05:30.153Z,67.21
2018-01-30T00:06:30.113Z,67.69
2018-01-30T00:07:30.072Z,67.40
2018-01-30T00:08:30.029Z,61.52
2018-01-30T00:09:29.987Z,64.56
2018-01-30T00:10:29.944Z,61.42
2018-01-30T00:11:29.906Z,67.12
2018-01-30T00:12:29.881Z,65.69
2018-01-30T00:13:29.843Z,65.03
2018-01-30T00:14:29.786Z,69.02
2018-01-30T00:15:29.742Z,66.55
2018-01-30T00:16:29.709Z,68.16
2018-01-30T00:17:29.669Z,69.02
2018-01-30T00:18:29.622Z,66.08
2018-01-30T00:19:29.584Z,67.79
2018-01-30T00:20:29.546Z,69.40
2018-01-30T00:21:29.500Z,66.74
2018-01-30T00:22:29.456Z,66.55
2018-01-30T00:23:29.417Z,69.11
2018-01-30T00:24:29.376Z,69.21
2018-01-30T00:25:29.331Z,68.16
2018-01-30T00:26:29.300Z,68.54
2018-01-30T00:27:29.252Z,65.69
2018-01-30T00:28:29.207Z,68.64
2018-01-30T00:29:29.169Z,67.21
2018-01-30T00:30:29.136Z,67.50
2018-01-30T00:31:29.092Z,66.74
2018-01-30T00:32:29.053Z,67.50
2018-01-30T00:33:29.027Z,67.79
2018-01-30T00:34:28.962Z,69.02
2018-01-30T00:35:28.924Z,66.93
2018-01-30T00:36:28.884Z,69.59
2018-01-30T00:37:28.848Z,66.74
2018-01-30T00:38:28.798Z,66.93
2018-01-30T00:39:28.758Z,66.93
2018-01-30T00:40:28.727Z,66.93
2018-01-30T00:41:28.678Z,67.69
2018-01-30T00:42:28.645Z,69.21
2018-01-30T00:43:28.618Z,67.97
2018-01-30T00:44:28.556Z,71.20
2018-01-30T00:45:28.518Z,69.59
2018-01-30T00:46:28.478Z,68.83
2018-01-30T00:47:28.430Z,68.83
2018-01-30T00:48:28.393Z,70.15
2018-01-30T00:49:28.347Z,65.79
2018-01-30T00:50:28.308Z,66.93
2018-01-30T00:51:28.272Z,66.74
2018-01-30T00:52:28.270Z,68.26
2018-01-30T00:53:28.188Z,67.97
2018-01-30T00:54:28.166Z,66.93
2018-01-30T00:55:28.111Z,67.59
2018-01-30T00:56:28.066Z,70.06
2018-01-30T00:57:28.023Z,69.87
2018-01-30T00:58:27.982Z,67.97
2018-01-30T00:59:27.935Z,69.87
2018-01-30T01:00:27.906Z,69.02
2018-01-30T01:01:27.892Z,65.79
2018-01-30T01:02:27.813Z,70.44
2018-01-30T01:03:27.775Z,71.11
2018-01-30T01:04:27.730Z,71.77
2018-01-30T01:05:27.757Z,70.92
2018-01-30T01:06:27.656Z,70.63
2018-01-30T01:07:27.625Z,74.24
2018-01-30T01:08:27.583Z,73.57
2018-01-30T01:09:27.535Z,73.67
2018-01-30T01:10:27.498Z,73.00
2018-01-30T01:11:27.453Z,73.76
2018-01-30T01:12:27.413Z,73.19
2018-01-30T01:13:27.370Z,73.48
2018-01-30T01:14:27.319Z,74.43
2018-01-30T01:15:27.295Z,74.90
2018-01-30T01:16:27.238Z,76.23
2018-01-30T01:17:27.204Z,75.19
2018-01-30T01:18:27.159Z,73.29
2018-01-30T01:19:27.116Z,77.56
2018-01-30T01:20:27.079Z,73.48
2018-01-30T01:21:27.039Z,76.04
2018-01-30T01:22:26.999Z,77.94
2018-01-30T01:23:26.946Z,75.19
2018-01-30T01:24:26.921Z,74.90
2018-01-30T01:25:26.878Z,75.95
2018-01-30T01:26:26.835Z,74.52
2018-01-30T01:27:26.789Z,77.18
2018-01-30T01:28:26.747Z,77.84
2018-01-30T01:29:26.704Z,76.80
2018-01-30T01:30:26.661Z,77.28
2018-01-30T01:31:26.623Z,75.09
2018-01-30T01:32:26.579Z,78.61
2018-01-30T01:33:26.548Z,78.70
2018-01-30T01:34:26.500Z,78.61
2018-01-30T01:35:26.458Z,76.99
2018-01-30T01:36:26.418Z,78.70
2018-01-30T01:37:26.379Z,80.03
2018-01-30T01:38:26.337Z,77.84
2018-01-30T01:39:26.310Z,78.32
2018-01-30T01:40:26.253Z,78.89
2018-01-30T01:41:26.214Z,79.36
2018-01-30T01:42:26.170Z,78.70
2018-01-30T01:43:26.129Z,76.90
2018-01-30T01:44:26.086Z,75.85
2018-01-30T01:45:26.045Z,77.09
2018-01-30T01:46:26.010Z,77.47
2018-01-30T01:47:25.970Z,76.32
2018-01-30T01:48:25.923Z,79.74
2018-01-30T01:49:25.880Z,78.13
2018-01-30T01:50:25.839Z,77.75
2018-01-30T01:51:25.810Z,75.95
2018-01-30T01:52:25.759Z,77.05
2018-01-30T01:53:25.719Z,77.28
2018-01-30T01:54:25.679Z,78.42
2018-01-30T01:55:25.649Z,77.84
2018-01-30T01:56:25.594Z,77.81
2018-01-30T01:57:25.553Z,75.57
2018-01-30T01:58:25.511Z,76.99
2018-01-30T01:59:25.472Z,76.71
2018-01-30T02:00:25.430Z,77.28
2018-01-30T02:01:25.387Z,76.32
2018-01-30T02:02:25.347Z,76.61
2018-01-30T02:03:25.307Z,75.00
2018-01-30T02:04:25.264Z,77.09
2018-01-30T02:05:25.229Z,77.37
2018-01-30T02:06:25.183Z,75.95
2018-01-30T02:07:25.139Z,77.66
2018-01-30T02:08:25.101Z,78.23
2018-01-30T02:09:25.056Z,76.61
2018-01-30T02:10:25.029Z,77.28
2018-01-30T02:11:24.979Z,77.24
2018-01-30T02:12:24.932Z,76.71
2018-01-30T02:13:24.892Z,74.96
2018-01-30T02:14:24.854Z,75.19
2018-01-30T02:15:24.809Z,75.67
2018-01-30T02:16:24.773Z,74.62
2018-01-30T02:17:24.737Z,74.05
2018-01-30T02:18:24.690Z,74.52
2018-01-30T02:19:24.649Z,73.10
2018-01-30T02:20:24.608Z,74.11
2018-01-30T02:21:24.568Z,74.68
2018-01-30T02:22:24.522Z,74.01
2018-01-30T02:23:24.482Z,74.01
2018-01-30T02:24:24.438Z,72.06
2018-01-30T02:25:24.400Z,71.73
2018-01-30T02:26:24.364Z,72.91
2018-01-30T02:27:24.328Z,73.10
2018-01-30T02:28:24.278Z,73.19
2018-01-30T02:29:24.239Z,73.00
2018-01-30T02:30:24.198Z,72.44
2018-01-30T02:31:24.156Z,71.96
2018-01-30T02:32:24.116Z,73.67
2018-01-30T02:33:24.075Z,71.86
2018-01-30T02:34:24.034Z,71.92
2018-01-30T02:35:23.991Z,72.53
2018-01-30T02:36:23.951Z,69.74
2018-01-30T02:37:23.907Z,68.73
2018-01-30T02:38:23.865Z,68.89
2018-01-30T02:39:23.824Z,65.66
2018-01-30T02:40:23.783Z,67.37
2018-01-30T02:41:23.742Z,66.99
2018-01-30T02:42:23.705Z,68.60
2018-01-30T02:43:23.671Z,65.66
2018-01-30T02:44:23.619Z,65.00
2018-01-30T02:45:23.583Z,63.29
2018-01-30T02:46:23.544Z,61.96
2018-01-30T02:47:23.497Z,60.82
2018-01-30T02:48:23.453Z,62.24
2018-01-30T02:49:23.418Z,62.34
2018-01-30T02:50:23.371Z,61.87
2018-01-30T02:51:23.331Z,60.06
2018-01-30T02:52:23.302Z,59.59
2018-01-30T02:53:23.250Z,60.44
2018-01-30T02:54:23.213Z,62.91
2018-01-30T02:55:23.167Z,60.35
2018-01-30T02:56:23.125Z,61.39
2018-01-30T02:57:23.094Z,62.72
2018-01-30T02:58:23.043Z,62.72
2018-01-30T02:59:23.006Z,61.30
2018-01-30T03:00:22.960Z,62.15
2018-01-30T03:01:22.922Z,61.77
2018-01-30T03:02:22.891Z,59.40
2018-01-30T03:03:22.838Z,61.01
2018-01-30T03:04:22.800Z,60.44
2018-01-30T03:05:22.754Z,60.25
2018-01-30T03:06:22.718Z,62.24
2018-01-30T03:07:22.679Z,63.76
2018-01-30T03:08:22.650Z,65.00
2018-01-30T03:09:22.592Z,63.95
2018-01-30T03:10:22.553Z,63.51
2018-01-30T03:11:22.509Z,66.36
2018-01-30T03:12:22.467Z,66.83
2018-01-30T03:13:22.440Z,68.73
2018-01-30T03:14:22.387Z,69.96
2018-01-30T03:15:22.354Z,74.58
2018-01-30T03:16:22.307Z,74.71
2018-01-30T03:17:22.264Z,76.61
2018-01-30T03:18:22.221Z,73.48
2018-01-30T03:19:22.180Z,73.10
2018-01-30T03:20:22.141Z,73.19
2018-01-30T03:21:22.098Z,72.40
2018-01-30T03:22:22.062Z,71.77
2018-01-30T03:23:22.024Z,70.54
2018-01-30T03:24:21.974Z,71.20
2018-01-30T03:25:21.936Z,69.96
2018-01-30T03:26:21.895Z,71.48
2018-01-30T03:27:21.855Z,70.63
2018-01-30T03:28:21.812Z,70.59
2018-01-30T03:29:21.780Z,70.92
2018-01-30T03:30:21.734Z,71.07
2018-01-30T03:31:21.695Z,72.06
2018-01-30T03:32:21.648Z,72.53
2018-01-30T03:33:21.610Z,71.86
2018-01-30T03:34:21.566Z,78.13
2018-01-30T03:35:21.549Z,73.35
2018-01-30T03:36:21.503Z,76.14
2018-01-30T03:37:21.478Z,75.28
2018-01-30T03:38:21.400Z,80.60
2018-01-30T03:39:21.369Z,81.84
2018-01-30T03:40:21.349Z,83.07
2018-01-30T03:41:21.284Z,81.36
2018-01-30T03:42:21.236Z,80.22
2018-01-30T03:43:21.193Z,79.65
2018-01-30T03:44:21.161Z,82.03
2018-01-30T03:45:21.128Z,83.36
2018-01-30T03:46:21.136Z,83.07
2018-01-30T03:47:21.029Z,83.73
2018-01-30T03:48:20.997Z,83.92
2018-01-30T03:49:20.953Z,84.30
2018-01-30T03:50:20.919Z,86.11
2018-01-30T03:51:20.866Z,85.82
2018-01-30T03:52:20.833Z,85.72
2018-01-30T03:53:20.781Z,85.91
2018-01-30T03:54:20.748Z,85.91
2018-01-30T03:55:20.702Z,86.68
2018-01-30T03:56:20.665Z,86.30
2018-01-30T03:57:20.627Z,86.77
2018-01-30T03:58:20.589Z,87.15
2018-01-30T03:59:20.537Z,85.44
2018-01-30T04:00:20.499Z,87.24
2018-01-30T04:01:20.459Z,89.05
2018-01-30T04:02:20.410Z,87.91
2018-01-30T04:03:20.375Z,86.96
2018-01-30T04:04:20.335Z,86.77
2018-01-30T04:05:20.292Z,87.15
2018-01-30T04:06:20.250Z,88.76
2018-01-30T04:07:20.209Z,87.43
2018-01-30T04:08:20.165Z,88.29
2018-01-30T04:09:20.133Z,87.82
2018-01-30T04:10:20.093Z,86.58
2018-01-30T04:11:20.045Z,86.68
2018-01-30T04:12:20.005Z,86.58
2018-01-30T04:13:19.964Z,87.34
2018-01-30T04:14:19.926Z,86.96
2018-01-30T04:15:19.880Z,86.39
2018-01-30T04:16:19.840Z,85.68
2018-01-30T04:17:19.798Z,85.63
2018-01-30T04:18:19.756Z,83.83
2018-01-30T04:19:19.714Z,84.11
2018-01-30T04:20:19.676Z,83.40
2018-01-30T04:21:19.630Z,83.31
2018-01-30T04:22:19.605Z,84.26
2018-01-30T04:23:19.550Z,83.12
2018-01-30T04:24:19.505Z,82.17
2018-01-30T04:25:19.470Z,82.93
2018-01-30T04:26:19.427Z,82.84
2018-01-30T04:27:19.384Z,82.55
2018-01-30T04:28:19.346Z,82.93
2018-01-30T04:29:19.303Z,82.74
2018-01-30T04:30:19.260Z,81.04
2018-01-30T04:31:19.229Z,82.55
2018-01-30T04:32:19.175Z,82.93
2018-01-30T04:33:19.136Z,81.70
2018-01-30T04:34:19.094Z,83.50
2018-01-30T04:35:19.056Z,82.84
2018-01-30T04:36:19.011Z,81.32
2018-01-30T04:37:18.988Z,82.46
2018-01-30T04:38:18.938Z,81.70
2018-01-30T04:39:18.889Z,82.46
2018-01-30T04:40:18.852Z,81.13
2018-01-30T04:41:18.812Z,81.88
2018-01-30T04:42:18.769Z,81.32
2018-01-30T04:43:18.727Z,81.32
2018-01-30T04:44:18.711Z,79.90
2018-01-30T04:45:18.641Z,79.99
2018-01-30T04:46:18.606Z,79.90
2018-01-30T04:47:18.563Z,79.99
2018-01-30T04:48:18.520Z,78.85
2018-01-30T04:49:18.478Z,78.28
2018-01-30T04:50:18.435Z,78.19
2018-01-30T04:51:18.395Z,78.00
2018-01-30T04:52:18.358Z,77.81
2018-01-30T04:53:18.322Z,76.57
2018-01-30T04:54:18.274Z,76.76
2018-01-30T04:55:18.233Z,76.10
2018-01-30T04:56:18.197Z,76.29
2018-01-30T04:57:18.152Z,76.76
2018-01-30T04:58:18.110Z,75.91
2018-01-30T04:59:18.072Z,78.09
2018-01-30T05:00:18.032Z,76.57
2018-01-30T05:01:17.998Z,74.96
2018-01-30T05:02:17.943Z,76.95
2018-01-30T05:03:17.904Z,77.14
2018-01-30T05:04:17.863Z,78.19
2018-01-30T05:05:17.822Z,76.76
2018-01-30T05:06:17.781Z,76.76
2018-01-30T05:07:17.745Z,78.00
2018-01-30T05:08:17.703Z,77.24
2018-01-30T05:09:17.661Z,76.67
2018-01-30T05:10:17.616Z,78.19
2018-01-30T05:11:17.577Z,78.00
2018-01-30T05:12:17.535Z,78.09
2018-01-30T05:13:17.495Z,78.19
2018-01-30T05:14:17.474Z,77.52
2018-01-30T05:15:17.410Z,79.42
2018-01-30T05:16:17.380Z,78.47
2018-01-30T05:17:17.331Z,77.52
2018-01-30T05:18:17.290Z,79.99
2018-01-30T05:19:17.258Z,79.23
2018-01-30T05:20:17.206Z,78.19
2018-01-30T05:21:17.174Z,77.62
2018-01-30T05:22:17.126Z,77.90
2018-01-30T05:23:17.084Z,78.00
2018-01-30T05:24:17.041Z,79.99
2018-01-30T05:25:17.002Z,78.56
2018-01-30T05:26:16.963Z,77.90
2018-01-30T05:27:16.921Z,79.42
2018-01-30T05:28:16.876Z,78.56
2018-01-30T05:29:16.836Z,79.33
2018-01-30T05:30:16.795Z,80.84
2018-01-30T05:31:16.753Z,81.60
2018-01-30T05:32:16.714Z,81.13
2018-01-30T05:33:16.671Z,79.99
2018-01-30T05:34:16.628Z,80.65
2018-01-30T05:35:16.588Z,81.32
2018-01-30T05:36:16.552Z,81.70
2018-01-30T05:37:16.514Z,81.04
2018-01-30T05:38:16.466Z,80.56
2018-01-30T05:39:16.426Z,82.93
2018-01-30T05:40:16.381Z,82.84
2018-01-30T05:41:16.347Z,82.74
2018-01-30T05:42:16.342Z,82.55
2018-01-30T05:43:16.256Z,81.88
2018-01-30T05:44:16.220Z,83.40
2018-01-30T05:45:16.177Z,83.31
2018-01-30T05:46:16.147Z,83.03
2018-01-30T05:47:16.100Z,83.40
2018-01-30T05:48:16.049Z,83.88
2018-01-30T05:49:16.014Z,83.40
2018-01-30T05:50:15.971Z,83.40
2018-01-30T05:51:15.935Z,83.97
2018-01-30T05:52:15.914Z,83.69
2018-01-30T05:53:15.847Z,85.30
2018-01-30T05:54:15.817Z,85.40
2018-01-30T05:55:15.766Z,85.59
2018-01-30T05:56:15.736Z,86.82
2018-01-30T05:57:15.688Z,85.21
2018-01-30T05:58:15.640Z,85.49
2018-01-30T05:59:15.602Z,85.49
2018-01-30T06:00:15.559Z,85.02
2018-01-30T06:01:15.527Z,85.40
2018-01-30T06:02:15.481Z,85.59
2018-01-30T06:03:15.437Z,84.36
2018-01-30T06:04:15.397Z,85.97
2018-01-30T06:05:15.369Z,84.83
2018-01-30T06:06:15.318Z,84.92
2018-01-30T06:07:15.287Z,85.02
2018-01-30T06:08:15.227Z,84.26
2018-01-30T06:09:15.189Z,85.40
2018-01-30T06:10:15.154Z,85.11
2018-01-30T06:11:15.137Z,84.92
2018-01-30T06:12:15.066Z,86.44
2018-01-30T06:13:15.023Z,85.21
2018-01-30T06:14:14.987Z,85.97
2018-01-30T06:15:14.965Z,85.11
2018-01-30T06:16:14.939Z,85.49
2018-01-30T06:17:14.900Z,85.30
2018-01-30T06:18:14.840Z,85.30
2018-01-30T06:19:14.788Z,86.16
2018-01-30T06:20:14.747Z,85.30
2018-01-30T06:21:14.699Z,85.49
2018-01-30T06:22:14.653Z,85.68
2018-01-30T06:23:14.611Z,86.91
2018-01-30T06:24:14.565Z,86.82
2018-01-30T06:25:14.537Z,86.44
2018-01-30T06:26:14.489Z,85.87
2018-01-30T06:27:14.448Z,85.21
2018-01-30T06:28:14.404Z,85.59
2018-01-30T06:29:14.363Z,86.07
2018-01-30T06:30:14.321Z,85.21
2018-01-30T06:31:14.284Z,85.21
2018-01-30T06:32:14.249Z,84.92
2018-01-30T06:33:14.198Z,84.83
2018-01-30T06:34:14.160Z,85.49
2018-01-30T06:35:14.122Z,85.02
2018-01-30T06:36:14.075Z,84.45
2018-01-30T06:37:14.041Z,85.02
2018-01-30T06:38:13.993Z,84.83
2018-01-30T06:39:13.951Z,84.17
2018-01-30T06:40:13.910Z,84.07
2018-01-30T06:41:13.868Z,84.17
2018-01-30T06:42:13.831Z,84.55
2018-01-30T06:43:13.787Z,83.40
2018-01-30T06:44:13.767Z,84.45
2018-01-30T06:45:13.712Z,84.36
2018-01-30T06:46:13.660Z,85.11
2018-01-30T06:47:13.631Z,84.36
2018-01-30T06:48:13.615Z,84.83
2018-01-30T06:49:13.540Z,84.26
2018-01-30T06:50:13.498Z,84.68
2018-01-30T06:51:13.461Z,84.83
2018-01-30T06:52:13.412Z,85.02
2018-01-30T06:53:13.383Z,84.92
2018-01-30T06:54:13.341Z,85.97
2018-01-30T06:55:13.299Z,85.78
2018-01-30T06:56:13.265Z,85.44
2018-01-30T06:57:13.210Z,85.21
2018-01-30T06:58:13.171Z,85.63
2018-01-30T06:59:13.131Z,85.87
2018-01-30T07:00:13.105Z,85.91
2018-01-30T07:01:13.045Z,86.30
2018-01-30T07:02:13.013Z,87.34
2018-01-30T07:03:12.969Z,86.77
2018-01-30T07:04:12.930Z,86.58
2018-01-30T07:05:12.898Z,86.25
2018-01-30T07:06:12.842Z,85.25
2018-01-30T07:07:12.802Z,86.16
2018-01-30T07:08:12.775Z,86.11
2018-01-30T07:09:12.732Z,85.30
2018-01-30T07:10:12.686Z,85.25
2018-01-30T07:11:12.642Z,86.01
2018-01-30T07:12:12.604Z,85.53
2018-01-30T07:13:12.559Z,86.82
2018-01-30T07:14:12.514Z,86.20
2018-01-30T07:15:12.479Z,86.20
2018-01-30T07:16:12.450Z,86.49
2018-01-30T07:17:12.403Z,85.72
2018-01-30T07:18:12.351Z,86.49
2018-01-30T07:19:12.307Z,85.72
2018-01-30T07:20:12.274Z,86.20
2018-01-30T07:21:12.233Z,86.49
2018-01-30T07:22:12.193Z,86.77
2018-01-30T07:23:12.146Z,86.87
2018-01-30T07:24:12.103Z,86.58
2018-01-30T07:25:12.071Z,86.68
2018-01-30T07:26:12.023Z,86.87
2018-01-30T07:27:11.985Z,86.68
2018-01-30T07:28:11.940Z,86.20
2018-01-30T07:29:11.898Z,86.30
2018-01-30T07:30:11.869Z,86.30
2018-01-30T07:31:11.819Z,86.87
2018-01-30T07:32:11.776Z,86.77
2018-01-30T07:33:11.747Z,86.58
2018-01-30T07:34:11.694Z,86.87
2018-01-30T07:35:11.664Z,86.20
2018-01-30T07:36:11.613Z,86.77
2018-01-30T07:37:11.576Z,86.87
2018-01-30T07:38:11.545Z,87.05
2018-01-30T07:39:11.501Z,86.01
2018-01-30T07:40:11.448Z,87.05
2018-01-30T07:41:11.408Z,87.43
2018-01-30T07:42:11.368Z,85.63
2018-01-30T07:43:11.326Z,86.30
2018-01-30T07:44:11.286Z,85.91
2018-01-30T07:45:11.246Z,85.25
2018-01-30T07:46:11.203Z,85.53
2018-01-30T07:47:11.163Z,85.63
2018-01-30T07:48:11.124Z,85.63
2018-01-30T07:49:11.089Z,84.68
2018-01-30T07:50:11.040Z,85.63
2018-01-30T07:51:11.003Z,85.63
2018-01-30T07:52:10.960Z,85.16
2018-01-30T07:53:10.920Z,85.44
2018-01-30T07:54:10.880Z,84.78
2018-01-30T07:55:10.839Z,84.87
2018-01-30T07:56:10.800Z,86.39
2018-01-30T07:57:10.762Z,86.96
2018-01-30T07:58:10.761Z,86.58
2018-01-30T07:59:10.675Z,86.68
2018-01-30T08:00:10.639Z,86.11
2018-01-30T08:01:10.591Z,86.77
2018-01-30T08:02:10.556Z,86.68
2018-01-30T08:03:10.520Z,86.20
2018-01-30T08:04:10.470Z,85.63
2018-01-30T08:05:10.430Z,86.39
2018-01-30T08:06:10.484Z,85.63
2018-01-30T08:07:10.352Z,84.97
2018-01-30T08:08:10.318Z,86.01
2018-01-30T08:09:10.275Z,86.68
2018-01-30T08:10:10.496Z,86.01
2018-01-30T08:11:10.192Z,85.53
2018-01-30T08:12:10.150Z,85.63
2018-01-30T08:13:10.116Z,86.49
2018-01-30T08:14:10.064Z,86.49
2018-01-30T08:15:10.055Z,84.78
2018-01-30T08:16:10.011Z,85.44
2018-01-30T08:17:09.946Z,85.82
2018-01-30T08:18:09.941Z,85.91
2018-01-30T08:19:09.869Z,85.91
2018-01-30T08:20:09.838Z,85.91
2018-01-30T08:21:09.787Z,84.78
2018-01-30T08:22:09.753Z,86.01
2018-01-30T08:23:09.715Z,86.30
2018-01-30T08:24:09.692Z,86.30
2018-01-30T08:25:09.619Z,86.96
2018-01-30T08:26:09.596Z,85.25
2018-01-30T08:27:09.536Z,87.53
2018-01-30T08:28:09.497Z,86.77
2018-01-30T08:29:09.455Z,87.24
2018-01-30T08:30:09.465Z,86.77
2018-01-30T08:31:09.379Z,86.39
2018-01-30T08:32:09.364Z,85.35
2018-01-30T08:33:09.301Z,86.77
2018-01-30T08:34:09.276Z,85.35
2018-01-30T08:35:09.223Z,86.49
2018-01-30T08:36:09.184Z,86.49
2018-01-30T08:37:09.130Z,86.30
2018-01-30T08:38:09.100Z,86.68
2018-01-30T08:39:09.097Z,86.11
2018-01-30T08:40:09.009Z,85.82
2018-01-30T08:41:09.484Z,86.30
2018-01-30T08:42:08.971Z,86.58
2018-01-30T08:43:08.888Z,85.63
2018-01-30T08:44:08.868Z,87.05
2018-01-30T08:45:08.824Z,86.49
2018-01-30T08:46:08.776Z,86.58
2018-01-30T08:47:08.739Z,86.77
2018-01-30T08:48:08.685Z,86.39
2018-01-30T08:49:08.653Z,87.62
2018-01-30T08:50:08.610Z,87.43
2018-01-30T08:51:08.576Z,87.72
2018-01-30T08:52:08.520Z,87.05
2018-01-30T08:53:08.480Z,86.87
2018-01-30T08:54:08.460Z,87.24
2018-01-30T08:55:08.397Z,87.72
2018-01-30T08:56:08.365Z,87.72
2018-01-30T08:57:08.327Z,88.57
2018-01-30T08:58:08.292Z,87.72
2018-01-30T08:59:08.246Z,88.39
2018-01-30T09:00:08.205Z,88.20
2018-01-30T09:01:08.160Z,88.39
2018-01-30T09:02:08.127Z,89.14
2018-01-30T09:03:08.092Z,88.76
2018-01-30T09:04:08.040Z,88.39
2018-01-30T09:05:07.995Z,89.33
2018-01-30T09:06:07.974Z,88.86
2018-01-30T09:07:07.919Z,89.24
2018-01-30T09:08:07.878Z,89.53
2018-01-30T09:09:07.835Z,89.14
2018-01-30T09:10:07.804Z,89.67
2018-01-30T09:11:07.905Z,90.28
2018-01-30T09:12:07.731Z,90.09
2018-01-30T09:13:07.693Z,90.19
2018-01-30T09:14:07.635Z,90.00
2018-01-30T09:15:07.595Z,89.05
2018-01-30T09:16:07.551Z,89.62
2018-01-30T09:17:07.515Z,89.62
2018-01-30T09:18:07.470Z,89.24
2018-01-30T09:19:07.430Z,89.14
2018-01-30T09:20:07.461Z,88.57
2018-01-30T09:21:07.349Z,89.53
2018-01-30T09:22:07.313Z,90.28
2018-01-30T09:23:07.270Z,89.62
2018-01-30T09:24:07.229Z,89.24
2018-01-30T09:25:07.188Z,89.90
2018-01-30T09:26:07.151Z,89.90
2018-01-30T09:27:07.116Z,90.09
2018-01-30T09:28:07.069Z,89.81
2018-01-30T09:29:07.034Z,90.09
2018-01-30T09:30:06.986Z,90.28
2018-01-30T09:31:06.945Z,89.14
2018-01-30T09:32:06.911Z,89.72
2018-01-30T09:33:06.871Z,90.28
2018-01-30T09:34:06.822Z,90.00
2018-01-30T09:35:06.785Z,89.72
2018-01-30T09:36:06.751Z,90.00
2018-01-30T09:37:06.708Z,90.19
2018-01-30T09:38:06.673Z,90.76
2018-01-30T09:39:06.622Z,90.28
2018-01-30T09:40:06.584Z,90.80
2018-01-30T09:41:06.545Z,92.13
2018-01-30T09:42:06.502Z,91.14
2018-01-30T09:43:06.460Z,90.80
2018-01-30T09:44:06.419Z,90.42
2018-01-30T09:45:06.382Z,91.47
2018-01-30T09:46:06.341Z,90.57
2018-01-30T09:47:06.301Z,90.61
2018-01-30T09:48:06.268Z,90.52
2018-01-30T09:49:06.228Z,90.90
2018-01-30T09:50:06.183Z,90.61
2018-01-30T09:51:06.149Z,91.33
2018-01-30T09:52:06.111Z,90.95
2018-01-30T09:53:06.068Z,90.57
2018-01-30T09:54:06.026Z,91.85
2018-01-30T09:55:05.980Z,89.95
2018-01-30T09:56:05.947Z,90.99
2018-01-30T09:57:05.900Z,90.05
2018-01-30T09:58:05.862Z,90.71
2018-01-30T09:59:05.815Z,91.94
2018-01-30T10:00:05.779Z,91.38
2018-01-30T10:01:05.740Z,91.75
2018-01-30T10:02:05.705Z,91.75
2018-01-30T10:03:05.656Z,90.42
2018-01-30T10:04:05.629Z,90.38
2018-01-30T10:05:05.578Z,89.72
2018-01-30T10:06:05.536Z,90.90
2018-01-30T10:07:05.494Z,90.90
2018-01-30T10:08:05.455Z,91.19
2018-01-30T10:09:05.415Z,90.95
2018-01-30T10:10:05.373Z,90.23
2018-01-30T10:11:05.344Z,90.61
2018-01-30T10:12:05.292Z,92.51
2018-01-30T10:13:05.321Z,92.04
2018-01-30T10:14:05.251Z,90.99
2018-01-30T10:15:05.172Z,91.47
2018-01-30T10:16:05.148Z,91.75
2018-01-30T10:17:05.104Z,91.89
2018-01-30T10:18:05.054Z,91.04
2018-01-30T10:19:05.014Z,91.66
2018-01-30T10:20:04.973Z,91.38
2018-01-30T10:21:04.932Z,92.32
2018-01-30T10:22:04.891Z,92.51
2018-01-30T10:23:04.865Z,91.47
2018-01-30T10:24:04.816Z,92.23
2018-01-30T10:25:04.772Z,91.85
2018-01-30T10:26:04.737Z,91.28
2018-01-30T10:27:04.706Z,91.94
2018-01-30T10:28:04.663Z,92.13
2018-01-30T10:29:04.613Z,92.23
2018-01-30T10:30:04.570Z,91.89
2018-01-30T10:31:04.529Z,92.13
2018-01-30T10:32:04.489Z,92.13
2018-01-30T10:33:04.448Z,92.32
2018-01-30T10:34:04.408Z,92.61
2018-01-30T10:35:04.376Z,91.85
2018-01-30T10:36:04.332Z,93.18
2018-01-30T10:37:04.293Z,92.99
2018-01-30T10:38:04.268Z,92.80
2018-01-30T10:39:04.226Z,92.42
2018-01-30T10:40:04.188Z,92.71
2018-01-30T10:41:04.127Z,93.37
2018-01-30T10:42:04.091Z,93.18
2018-01-30T10:43:04.049Z,92.90
2018-01-30T10:44:04.024Z,92.80
2018-01-30T10:45:03.969Z,93.27
2018-01-30T10:46:03.943Z,92.61
2018-01-30T10:47:03.900Z,92.42
2018-01-30T10:48:03.851Z,91.85
2018-01-30T10:49:03.831Z,92.94
2018-01-30T10:50:03.788Z,91.38
2018-01-30T10:51:03.736Z,92.37
2018-01-30T10:52:03.688Z,91.85
2018-01-30T10:53:03.649Z,91.66
2018-01-30T10:54:03.660Z,91.56
2018-01-30T10:55:03.568Z,91.47
2018-01-30T10:56:03.524Z,91.38
2018-01-30T10:57:03.558Z,93.75
2018-01-30T10:58:03.458Z,92.71
2018-01-30T10:59:03.491Z,92.04
2018-01-30T11:00:03.380Z,91.75
2018-01-30T11:01:03.346Z,92.23
2018-01-30T11:02:03.300Z,91.85
2018-01-30T11:03:03.280Z,92.13
2018-01-30T11:04:03.208Z,92.13
2018-01-30T11:05:03.176Z,92.42
2018-01-30T11:06:03.125Z,91.75
2018-01-30T11:07:03.103Z,92.23
2018-01-30T11:08:03.090Z,91.94
2018-01-30T11:09:03.010Z,91.66
2018-01-30T11:10:02.964Z,91.28
2018-01-30T11:11:03.021Z,92.13
2018-01-30T11:12:02.893Z,91.66
2018-01-30T11:13:02.850Z,91.66
2018-01-30T11:14:02.819Z,91.56
2018-01-30T11:15:02.855Z,91.28
2018-01-30T11:16:02.727Z,92.80
2018-01-30T11:17:02.684Z,92.04
2018-01-30T11:18:02.677Z,92.71
2018-01-30T11:19:02.603Z,92.13
2018-01-30T11:20:03.516Z,92.04
2018-01-30T11:21:02.521Z,92.13
2018-01-30T11:22:02.482Z,91.94
2018-01-30T11:23:02.446Z,92.42
2018-01-30T11:24:02.396Z,92.71
2018-01-30T11:25:02.369Z,92.51
2018-01-30T11:26:02.322Z,92.61
2018-01-30T11:27:02.291Z,93.46
2018-01-30T11:28:02.246Z,93.27
2018-01-30T11:29:02.204Z,93.37
2018-01-30T11:30:02.174Z,93.65
2018-01-30T11:31:02.143Z,94.23
2018-01-30T11:32:02.089Z,95.84
2018-01-30T11:33:02.045Z,95.84
2018-01-30T11:34:02.010Z,95.46
2018-01-30T11:35:01.956Z,94.13
2018-01-30T11:36:01.927Z,94.79
2018-01-30T11:37:01.877Z,95.84
2018-01-30T11:38:01.852Z,95.55
2018-01-30T11:39:01.799Z,95.94
2018-01-30T11:40:01.788Z,95.65
2018-01-30T11:41:01.717Z,95.55
2018-01-30T11:42:01.675Z,97.31
2018-01-30T11:43:01.637Z,98.83
2018-01-30T11:44:01.599Z,98.07
2018-01-30T11:45:01.568Z,97.07
2018-01-30T11:46:01.523Z,96.50
2018-01-30T11:47:01.478Z,97.36
2018-01-30T11:48:01.434Z,97.17
2018-01-30T11:49:01.396Z,96.36
2018-01-30T11:50:01.359Z,97.12
2018-01-30T11:51:01.324Z,96.60
2018-01-30T11:52:01.282Z,96.69
2018-01-30T11:53:01.237Z,96.84
2018-01-30T11:54:01.232Z,96.36
2018-01-30T11:55:01.158Z,96.88
2018-01-30T11:56:01.123Z,96.31
2018-01-30T11:57:01.081Z,96.60
2018-01-30T11:58:01.045Z,96.98
2018-01-30T11:59:01.005Z,97.22
2018-01-30T12:00:00.966Z,97.55
2018-01-30T12:01:00.962Z,96.12
2018-01-30T12:02:00.877Z,96.12
2018-01-30T12:03:00.843Z,97.07
2018-01-30T12:04:00.799Z,97.45
2018-01-30T12:05:00.759Z,97.55
2018-01-30T12:06:00.716Z,97.31
2018-01-30T12:07:00.708Z,98.36
2018-01-30T12:08:00.640Z,98.50
2018-01-30T12:09:00.600Z,98.31
2018-01-30T12:10:00.566Z,98.59
2018-01-30T12:11:00.521Z,98.50
2018-01-30T12:12:00.483Z,98.36
2018-01-30T12:13:00.443Z,98.74
2018-01-30T12:14:00.397Z,98.50
2018-01-30T12:15:00.360Z,97.41
2018-01-30T12:16:00.322Z,98.17
2018-01-30T12:17:00.279Z,98.12
2018-01-30T12:18:00.247Z,97.36
2018-01-30T12:19:00.222Z,97.50
2018-01-30T12:20:00.165Z,97.27
2018-01-30T12:21:00.149Z,96.79
2018-01-30T12:22:00.082Z,97.41
2018-01-30T12:23:00.047Z,96.79
2018-01-30T12:24:00.005Z,97.41
2018-01-30T12:24:59.959Z,96.98
2018-01-30T12:25:59.924Z,98.17
2018-01-30T12:26:59.887Z,97.41
2018-01-30T12:27:59.858Z,97.45
2018-01-30T12:28:59.812Z,96.60
2018-01-30T12:29:59.768Z,97.27
2018-01-30T12:30:59.726Z,96.98
2018-01-30T12:31:59.682Z,97.03
2018-01-30T12:32:59.644Z,97.50
2018-01-30T12:33:59.608Z,97.88
2018-01-30T12:34:59.564Z,98.55
2018-01-30T12:35:59.523Z,98.64
2018-01-30T12:36:59.483Z,97.97
2018-01-30T12:37:59.442Z,98.36
2018-01-30T12:38:59.403Z,98.07
2018-01-30T12:39:59.367Z,97.97
2018-01-30T12:40:59.325Z,98.17
2018-01-30T12:41:59.283Z,98.17
2018-01-30T12:42:59.244Z,98.07
2018-01-30T12:43:59.204Z,98.64
2018-01-30T12:44:59.173Z,98.55
2018-01-30T12:45:59.128Z,97.97
2018-01-30T12:46:59.113Z,97.83
2018-01-30T12:47:59.046Z,98.36
2018-01-30T12:48:59.016Z,98.21
2018-01-30T12:49:58.965Z,97.69
2018-01-30T12:50:58.932Z,98.64
2018-01-30T12:51:58.894Z,98.26